Davisville, West Virginia
Current Conditions -  °F | °C
As of 8:12 PM on Wednesday 22 Oct 2014 (Local Time) from KPKB Reporting Station
Overcast Overcast  
Wind Chill: 50°   Ceiling: 3000
Heat Index: 50°   Visibility: 10mi
Dew Point: 41°   Wind: 5mph
Humidity: 71%   Direction: 300°WNW
Pressure: 30.23"   Gusts: NA
Location:  39.2°N, 81.5°W
Report Text: KPKB 230012Z 30004KT 10SM OVC030 10/05 A3023 RMK AO2 T01000050
Loading
Personal Weather Stations






























Interactive Weather Map
Tropical Storm Tracking
New forecast layout! Learn more

10-Day Weather Forecast

Advertisements
Track Severe Weather on mobile